Decoded Metar for UBBB (BAKU in AZERBAIJAN) (IATA:BAK) | Meteo·Mobile Aviation Weather
aviador You're here:

UBBB Decoded Metar

BAKU in AZERBAIJAN
Report Time2018-09-19 20:00:00
UTC Time2018-09-19 20:13:42
Flight Rules vfr VFR
WindCalm
Visibility9999 m
Phenomena:N/A
Clouds:N/A
Expected CloudBase > 2,000 ft AGL from Temp-Dew spread
CeilingNone
Temp17°C (ISA +2)
Dew Point12°C (73% RH)
QNH1020 hPa
Density Alt164 ft
Elevation-20 ft
Report Wrong Elevation
Raw Report
METAR UBBB 192000Z 00000KT CAVOK 17/12 Q1020 R88/D NOSIG=

Extra information for UBBB:More info

Metar Taf Metar & Taf Last 4 Metars F.Rules Stats Wind Profile Meteogram Temp Stats Airport Information Weather charts Add Link Nearby VenuesMetar ALERT Operation Metar Decoded Social comments